sensor_id;sensor_type;location;lat;lon;timestamp;P1;durP1;ratioP1;P2;durP2;ratioP2
18806;SDS011;9531;52.030;4.380;2022-08-06T00:01:03;119.45;;;22.60;;
18806;SDS011;9531;52.030;4.380;2022-08-06T00:03:30;150.95;;;34.70;;
18806;SDS011;9531;52.030;4.380;2022-08-06T00:05:57;122.60;;;12.80;;
18806;SDS011;9531;52.030;4.380;2022-08-06T00:08:25;112.75;;;23.45;;
18806;SDS011;9531;52.030;4.380;2022-08-06T00:10:54;167.25;;;65.53;;
18806;SDS011;9531;52.030;4.380;2022-08-06T00:13:21;211.27;;;99.03;;
18806;SDS011;9531;52.030;4.380;2022-08-06T00:15:50;102.22;;;13.88;;
18806;SDS011;9531;52.030;4.380;2022-08-06T00:18:19;202.27;;;118.93;;
18806;SDS011;9531;52.030;4.380;2022-08-06T00:20:46;160.57;;;25.88;;
18806;SDS011;9531;52.030;4.380;2022-08-06T00:23:14;155.50;;;48.58;;
18806;SDS011;9531;52.030;4.380;2022-08-06T00:25:41;106.80;;;11.30;;
18806;SDS011;9531;52.030;4.380;2022-08-06T00:28:10;126.53;;;13.73;;
18806;SDS011;9531;52.030;4.380;2022-08-06T00:30:37;129.32;;;10.07;;
18806;SDS011;9531;52.030;4.380;2022-08-06T00:33:05;117.90;;;12.57;;
18806;SDS011;9531;52.030;4.380;2022-08-06T00:35:32;111.88;;;10.45;;
18806;SDS011;9531;52.030;4.380;2022-08-06T00:37:59;98.18;;;8.50;;
18806;SDS011;9531;52.030;4.380;2022-08-06T00:40:27;97.95;;;10.75;;
18806;SDS011;9531;52.030;4.380;2022-08-06T00:42:54;109.95;;;11.93;;
18806;SDS011;9531;52.030;4.380;2022-08-06T00:45:23;99.10;;;14.82;;
18806;SDS011;9531;52.030;4.380;2022-08-06T00:47:53;109.65;;;14.43;;
18806;SDS011;9531;52.030;4.380;2022-08-06T00:50:20;110.20;;;14.38;;
18806;SDS011;9531;52.030;4.380;2022-08-06T00:52:49;116.00;;;14.55;;
18806;SDS011;9531;52.030;4.380;2022-08-06T00:55:16;113.10;;;8.57;;
18806;SDS011;9531;52.030;4.380;2022-08-06T00:57:44;107.63;;;12.93;;
18806;SDS011;9531;52.030;4.380;2022-08-06T01:00:12;100.07;;;14.40;;
18806;SDS011;9531;52.030;4.380;2022-08-06T01:02:41;119.93;;;9.02;;
18806;SDS011;9531;52.030;4.380;2022-08-06T01:05:08;97.85;;;13.73;;
18806;SDS011;9531;52.030;4.380;2022-08-06T01:07:35;130.18;;;11.88;;
18806;SDS011;9531;52.030;4.380;2022-08-06T01:10:03;99.40;;;9.50;;
18806;SDS011;9531;52.030;4.380;2022-08-06T01:12:31;117.53;;;16.95;;
18806;SDS011;9531;52.030;4.380;2022-08-06T01:14:58;94.57;;;8.35;;
18806;SDS011;9531;52.030;4.380;2022-08-06T01:17:26;123.05;;;14.18;;
18806;SDS011;9531;52.030;4.380;2022-08-06T01:19:58;112.50;;;12.43;;
18806;SDS011;9531;52.030;4.380;2022-08-06T01:22:46;124.55;;;9.60;;
18806;SDS011;9531;52.030;4.380;2022-08-06T01:25:26;105.88;;;13.18;;
18806;SDS011;9531;52.030;4.380;2022-08-06T01:27:59;133.63;;;12.70;;
18806;SDS011;9531;52.030;4.380;2022-08-06T01:30:29;98.47;;;12.70;;
18806;SDS011;9531;52.030;4.380;2022-08-06T01:33:00;98.50;;;10.90;;
18806;SDS011;9531;52.030;4.380;2022-08-06T01:35:29;100.75;;;13.88;;
18806;SDS011;9531;52.030;4.380;2022-08-06T01:37:57;137.75;;;13.23;;
18806;SDS011;9531;52.030;4.380;2022-08-06T01:40:26;100.43;;;12.10;;
18806;SDS011;9531;52.030;4.380;2022-08-06T01:42:53;113.82;;;16.08;;
18806;SDS011;9531;52.030;4.380;2022-08-06T01:45:23;100.35;;;14.23;;
18806;SDS011;9531;52.030;4.380;2022-08-06T01:47:53;114.88;;;13.50;;
18806;SDS011;9531;52.030;4.380;2022-08-06T01:50:22;104.55;;;12.20;;
18806;SDS011;9531;52.030;4.380;2022-08-06T01:52:51;139.57;;;13.52;;
18806;SDS011;9531;52.030;4.380;2022-08-06T01:55:20;120.07;;;11.90;;
18806;SDS011;9531;52.030;4.380;2022-08-06T01:57:50;98.03;;;13.45;;
18806;SDS011;9531;52.030;4.380;2022-08-06T02:00:18;92.75;;;9.77;;
18806;SDS011;9531;52.030;4.380;2022-08-06T02:02:46;109.45;;;12.00;;
18806;SDS011;9531;52.030;4.380;2022-08-06T02:05:15;96.82;;;9.95;;
18806;SDS011;9531;52.030;4.380;2022-08-06T02:07:44;95.18;;;9.60;;
18806;SDS011;9531;52.030;4.380;2022-08-06T02:10:13;97.80;;;10.75;;
18806;SDS011;9531;52.030;4.380;2022-08-06T02:12:41;99.85;;;12.02;;
18806;SDS011;9531;52.030;4.380;2022-08-06T02:15:11;102.38;;;14.00;;
18806;SDS011;9531;52.030;4.380;2022-08-06T02:17:40;113.38;;;12.90;;
18806;SDS011;9531;52.030;4.380;2022-08-06T02:20:10;102.88;;;12.35;;
18806;SDS011;9531;52.030;4.380;2022-08-06T02:22:39;109.93;;;13.45;;
18806;SDS011;9531;52.030;4.380;2022-08-06T02:25:08;117.53;;;12.88;;
18806;SDS011;9531;52.030;4.380;2022-08-06T02:27:38;124.88;;;12.80;;
18806;SDS011;9531;52.030;4.380;2022-08-06T02:30:07;99.22;;;13.32;;
18806;SDS011;9531;52.030;4.380;2022-08-06T02:32:34;98.80;;;9.85;;
18806;SDS011;9531;52.030;4.380;2022-08-06T02:35:01;111.85;;;16.67;;
18806;SDS011;9531;52.030;4.380;2022-08-06T02:37:31;136.85;;;21.50;;
18806;SDS011;9531;52.030;4.380;2022-08-06T02:40:02;97.07;;;16.40;;
18806;SDS011;9531;52.030;4.380;2022-08-06T02:42:31;102.95;;;10.25;;
18806;SDS011;9531;52.030;4.380;2022-08-06T02:44:59;121.70;;;9.25;;
18806;SDS011;9531;52.030;4.380;2022-08-06T02:47:29;105.90;;;12.25;;
18806;SDS011;9531;52.030;4.380;2022-08-06T02:49:59;115.95;;;11.77;;
18806;SDS011;9531;52.030;4.380;2022-08-06T02:52:28;132.77;;;15.10;;
18806;SDS011;9531;52.030;4.380;2022-08-06T02:55:00;97.85;;;11.95;;
18806;SDS011;9531;52.030;4.380;2022-08-06T02:57:29;101.65;;;11.38;;
18806;SDS011;9531;52.030;4.380;2022-08-06T02:59:59;113.80;;;15.45;;
18806;SDS011;9531;52.030;4.380;2022-08-06T03:02:27;96.97;;;11.00;;
18806;SDS011;9531;52.030;4.380;2022-08-06T03:04:56;136.75;;;18.60;;
18806;SDS011;9531;52.030;4.380;2022-08-06T03:07:25;101.50;;;15.40;;
18806;SDS011;9531;52.030;4.380;2022-08-06T03:09:54;111.00;;;16.35;;
18806;SDS011;9531;52.030;4.380;2022-08-06T03:12:23;96.65;;;13.73;;
18806;SDS011;9531;52.030;4.380;2022-08-06T03:14:51;114.50;;;13.43;;
18806;SDS011;9531;52.030;4.380;2022-08-06T03:17:20;113.05;;;15.48;;
18806;SDS011;9531;52.030;4.380;2022-08-06T03:19:48;109.75;;;14.18;;
18806;SDS011;9531;52.030;4.380;2022-08-06T03:22:16;110.15;;;19.83;;
18806;SDS011;9531;52.030;4.380;2022-08-06T03:24:43;132.93;;;13.18;;
18806;SDS011;9531;52.030;4.380;2022-08-06T03:27:11;131.32;;;15.48;;
18806;SDS011;9531;52.030;4.380;2022-08-06T03:29:43;101.10;;;14.45;;
18806;SDS011;9531;52.030;4.380;2022-08-06T03:32:11;99.07;;;14.10;;
18806;SDS011;9531;52.030;4.380;2022-08-06T03:34:39;133.98;;;18.92;;
18806;SDS011;9531;52.030;4.380;2022-08-06T03:37:07;123.75;;;12.05;;
18806;SDS011;9531;52.030;4.380;2022-08-06T03:39:36;101.13;;;15.93;;
18806;SDS011;9531;52.030;4.380;2022-08-06T03:42:05;112.00;;;9.27;;
18806;SDS011;9531;52.030;4.380;2022-08-06T03:44:32;91.50;;;9.88;;
18806;SDS011;9531;52.030;4.380;2022-08-06T03:47:02;107.28;;;14.32;;
18806;SDS011;9531;52.030;4.380;2022-08-06T03:49:32;101.30;;;14.45;;
18806;SDS011;9531;52.030;4.380;2022-08-06T03:52:00;119.35;;;15.63;;
18806;SDS011;9531;52.030;4.380;2022-08-06T03:54:28;112.20;;;18.95;;
18806;SDS011;9531;52.030;4.380;2022-08-06T03:56:58;140.80;;;13.02;;
18806;SDS011;9531;52.030;4.380;2022-08-06T03:59:26;97.82;;;9.77;;
18806;SDS011;9531;52.030;4.380;2022-08-06T04:01:54;104.57;;;17.45;;
18806;SDS011;9531;52.030;4.380;2022-08-06T04:04:24;95.60;;;10.05;;
18806;SDS011;9531;52.030;4.380;2022-08-06T04:06:53;134.23;;;13.57;;
18806;SDS011;9531;52.030;4.380;2022-08-06T04:09:20;108.22;;;13.40;;
18806;SDS011;9531;52.030;4.380;2022-08-06T04:11:48;109.28;;;10.45;;
18806;SDS011;9531;52.030;4.380;2022-08-06T04:14:15;158.90;;;15.40;;
18806;SDS011;9531;52.030;4.380;2022-08-06T04:16:42;98.85;;;12.48;;
18806;SDS011;9531;52.030;4.380;2022-08-06T04:19:11;130.07;;;18.50;;
18806;SDS011;9531;52.030;4.380;2022-08-06T04:21:42;112.60;;;12.40;;
18806;SDS011;9531;52.030;4.380;2022-08-06T04:24:10;107.30;;;15.73;;
18806;SDS011;9531;52.030;4.380;2022-08-06T04:26:39;100.75;;;12.65;;
18806;SDS011;9531;52.030;4.380;2022-08-06T04:29:08;96.47;;;9.77;;
18806;SDS011;9531;52.030;4.380;2022-08-06T04:31:36;113.57;;;14.90;;
18806;SDS011;9531;52.030;4.380;2022-08-06T04:34:04;100.28;;;13.05;;
18806;SDS011;9531;52.030;4.380;2022-08-06T04:36:32;136.77;;;17.67;;
18806;SDS011;9531;52.030;4.380;2022-08-06T04:39:01;116.88;;;14.40;;
18806;SDS011;9531;52.030;4.380;2022-08-06T04:41:29;128.60;;;12.40;;
18806;SDS011;9531;52.030;4.380;2022-08-06T04:43:57;97.90;;;9.75;;
18806;SDS011;9531;52.030;4.380;2022-08-06T04:46:25;148.25;;;14.40;;
18806;SDS011;9531;52.030;4.380;2022-08-06T04:48:58;123.30;;;11.63;;
18806;SDS011;9531;52.030;4.380;2022-08-06T04:51:26;101.20;;;17.77;;
18806;SDS011;9531;52.030;4.380;2022-08-06T04:53:53;105.75;;;16.90;;
18806;SDS011;9531;52.030;4.380;2022-08-06T04:56:22;98.18;;;15.10;;
18806;SDS011;9531;52.030;4.380;2022-08-06T04:58:49;106.60;;;12.70;;
18806;SDS011;9531;52.030;4.380;2022-08-06T05:01:16;95.30;;;12.95;;
18806;SDS011;9531;52.030;4.380;2022-08-06T05:03:44;121.43;;;15.10;;
18806;SDS011;9531;52.030;4.380;2022-08-06T05:06:13;113.80;;;17.92;;
18806;SDS011;9531;52.030;4.380;2022-08-06T05:08:43;131.32;;;10.90;;
18806;SDS011;9531;52.030;4.380;2022-08-06T05:11:12;119.55;;;15.35;;
18806;SDS011;9531;52.030;4.380;2022-08-06T05:13:43;98.68;;;11.25;;
18806;SDS011;9531;52.030;4.380;2022-08-06T05:16:11;96.22;;;11.50;;
18806;SDS011;9531;52.030;4.380;2022-08-06T05:18:42;98.10;;;11.18;;
18806;SDS011;9531;52.030;4.380;2022-08-06T05:21:10;112.85;;;11.60;;
18806;SDS011;9531;52.030;4.380;2022-08-06T05:23:39;104.20;;;15.65;;
18806;SDS011;9531;52.030;4.380;2022-08-06T05:26:07;95.95;;;11.52;;
18806;SDS011;9531;52.030;4.380;2022-08-06T05:28:36;100.63;;;16.92;;
18806;SDS011;9531;52.030;4.380;2022-08-06T05:31:06;97.18;;;10.38;;
18806;SDS011;9531;52.030;4.380;2022-08-06T05:33:34;102.18;;;9.05;;
18806;SDS011;9531;52.030;4.380;2022-08-06T05:36:04;98.20;;;10.93;;
18806;SDS011;9531;52.030;4.380;2022-08-06T05:38:32;98.00;;;9.35;;
18806;SDS011;9531;52.030;4.380;2022-08-06T05:41:00;101.32;;;10.15;;
18806;SDS011;9531;52.030;4.380;2022-08-06T05:43:28;131.70;;;12.70;;
18806;SDS011;9531;52.030;4.380;2022-08-06T05:45:56;106.85;;;10.63;;
18806;SDS011;9531;52.030;4.380;2022-08-06T05:48:26;102.07;;;13.32;;
18806;SDS011;9531;52.030;4.380;2022-08-06T05:50:57;113.20;;;13.75;;
18806;SDS011;9531;52.030;4.380;2022-08-06T05:53:28;96.13;;;13.85;;
18806;SDS011;9531;52.030;4.380;2022-08-06T05:55:56;92.63;;;13.95;;
18806;SDS011;9531;52.030;4.380;2022-08-06T05:58:28;110.30;;;17.65;;
18806;SDS011;9531;52.030;4.380;2022-08-06T06:00:59;105.78;;;21.58;;
18806;SDS011;9531;52.030;4.380;2022-08-06T06:03:29;97.25;;;18.23;;
18806;SDS011;9531;52.030;4.380;2022-08-06T06:05:58;98.82;;;21.48;;
18806;SDS011;9531;52.030;4.380;2022-08-06T06:08:25;94.47;;;12.82;;
18806;SDS011;9531;52.030;4.380;2022-08-06T06:10:53;109.57;;;14.30;;
18806;SDS011;9531;52.030;4.380;2022-08-06T06:13:21;96.38;;;9.30;;
18806;SDS011;9531;52.030;4.380;2022-08-06T06:15:51;96.05;;;9.68;;
18806;SDS011;9531;52.030;4.380;2022-08-06T06:18:24;96.10;;;10.30;;
18806;SDS011;9531;52.030;4.380;2022-08-06T06:20:56;100.03;;;8.68;;
18806;SDS011;9531;52.030;4.380;2022-08-06T06:23:28;147.10;;;58.45;;
18806;SDS011;9531;52.030;4.380;2022-08-06T06:25:59;166.65;;;89.40;;
18806;SDS011;9531;52.030;4.380;2022-08-06T06:28:37;443.17;;;300.25;;
18806;SDS011;9531;52.030;4.380;2022-08-06T06:31:07;585.63;;;422.45;;
18806;SDS011;9531;52.030;4.380;2022-08-06T06:33:37;1218.10;;;709.72;;
18806;SDS011;9531;52.030;4.380;2022-08-06T06:36:08;1796.85;;;888.08;;
18806;SDS011;9531;52.030;4.380;2022-08-06T06:38:40;1923.45;;;829.65;;
18806;SDS011;9531;52.030;4.380;2022-08-06T06:41:11;1999.90;;;982.67;;
18806;SDS011;9531;52.030;4.380;2022-08-06T06:43:42;1999.90;;;869.10;;
18806;SDS011;9531;52.030;4.380;2022-08-06T06:46:12;1999.90;;;909.17;;
18806;SDS011;9531;52.030;4.380;2022-08-06T06:48:41;1696.13;;;705.97;;
18806;SDS011;9531;52.030;4.380;2022-08-06T06:51:13;904.58;;;395.20;;
18806;SDS011;9531;52.030;4.380;2022-08-06T06:53:42;1049.22;;;430.77;;
18806;SDS011;9531;52.030;4.380;2022-08-06T06:56:10;756.53;;;276.10;;
18806;SDS011;9531;52.030;4.380;2022-08-06T06:58:39;444.10;;;144.68;;
18806;SDS011;9531;52.030;4.380;2022-08-06T07:01:08;451.67;;;166.23;;
18806;SDS011;9531;52.030;4.380;2022-08-06T07:03:37;248.50;;;77.47;;
18806;SDS011;9531;52.030;4.380;2022-08-06T07:06:05;450.83;;;128.52;;
18806;SDS011;9531;52.030;4.380;2022-08-06T07:08:37;386.30;;;89.22;;
18806;SDS011;9531;52.030;4.380;2022-08-06T07:11:09;336.95;;;66.38;;
18806;SDS011;9531;52.030;4.380;2022-08-06T07:13:37;277.10;;;68.82;;
18806;SDS011;9531;52.030;4.380;2022-08-06T07:16:05;441.85;;;81.43;;
18806;SDS011;9531;52.030;4.380;2022-08-06T07:18:34;544.08;;;94.90;;
18806;SDS011;9531;52.030;4.380;2022-08-06T07:21:02;780.88;;;121.78;;
18806;SDS011;9531;52.030;4.380;2022-08-06T07:23:29;824.13;;;141.02;;
18806;SDS011;9531;52.030;4.380;2022-08-06T07:25:59;740.53;;;102.93;;
18806;SDS011;9531;52.030;4.380;2022-08-06T07:28:26;1316.15;;;174.90;;
18806;SDS011;9531;52.030;4.380;2022-08-06T07:30:55;1910.50;;;258.60;;
18806;SDS011;9531;52.030;4.380;2022-08-06T07:33:22;1727.40;;;202.75;;
18806;SDS011;9531;52.030;4.380;2022-08-06T07:35:50;1999.90;;;313.45;;
18806;SDS011;9531;52.030;4.380;2022-08-06T07:38:17;1999.90;;;570.05;;
18806;SDS011;9531;52.030;4.380;2022-08-06T07:40:47;1999.90;;;415.92;;
18806;SDS011;9531;52.030;4.380;2022-08-06T07:43:17;1999.90;;;408.83;;
18806;SDS011;9531;52.030;4.380;2022-08-06T07:45:45;1999.90;;;581.97;;
18806;SDS011;9531;52.030;4.380;2022-08-06T07:48:13;1999.90;;;575.97;;
18806;SDS011;9531;52.030;4.380;2022-08-06T07:50:43;1999.90;;;578.13;;
18806;SDS011;9531;52.030;4.380;2022-08-06T07:53:11;1999.90;;;694.85;;
18806;SDS011;9531;52.030;4.380;2022-08-06T07:55:39;1999.90;;;776.17;;
18806;SDS011;9531;52.030;4.380;2022-08-06T07:58:07;1999.90;;;807.60;;
18806;SDS011;9531;52.030;4.380;2022-08-06T08:00:36;1999.90;;;841.50;;
18806;SDS011;9531;52.030;4.380;2022-08-06T08:03:06;1999.90;;;866.35;;
18806;SDS011;9531;52.030;4.380;2022-08-06T08:05:51;1999.90;;;902.03;;
18806;SDS011;9531;52.030;4.380;2022-08-06T08:08:36;1999.90;;;736.63;;
18806;SDS011;9531;52.030;4.380;2022-08-06T08:11:04;1999.90;;;861.53;;
18806;SDS011;9531;52.030;4.380;2022-08-06T08:13:31;1999.90;;;875.50;;
18806;SDS011;9531;52.030;4.380;2022-08-06T08:16:00;1999.90;;;836.95;;
18806;SDS011;9531;52.030;4.380;2022-08-06T08:18:28;1999.90;;;827.80;;
18806;SDS011;9531;52.030;4.380;2022-08-06T08:20:56;1999.90;;;908.88;;
18806;SDS011;9531;52.030;4.380;2022-08-06T08:23:24;1999.90;;;865.13;;
18806;SDS011;9531;52.030;4.380;2022-08-06T08:25:53;1999.90;;;876.47;;
18806;SDS011;9531;52.030;4.380;2022-08-06T08:28:22;1999.90;;;848.53;;
18806;SDS011;9531;52.030;4.380;2022-08-06T08:30:49;1999.90;;;780.67;;
18806;SDS011;9531;52.030;4.380;2022-08-06T08:33:18;1999.90;;;851.42;;
18806;SDS011;9531;52.030;4.380;2022-08-06T08:35:46;1999.90;;;831.97;;
18806;SDS011;9531;52.030;4.380;2022-08-06T08:38:13;1999.90;;;817.28;;
18806;SDS011;9531;52.030;4.380;2022-08-06T08:40:40;1999.90;;;809.08;;
18806;SDS011;9531;52.030;4.380;2022-08-06T08:43:09;1999.90;;;893.78;;
18806;SDS011;9531;52.030;4.380;2022-08-06T08:45:38;1999.90;;;848.40;;
18806;SDS011;9531;52.030;4.380;2022-08-06T08:48:07;1999.90;;;889.50;;
18806;SDS011;9531;52.030;4.380;2022-08-06T08:50:40;1999.90;;;892.97;;
18806;SDS011;9531;52.030;4.380;2022-08-06T08:53:08;1999.90;;;885.75;;
18806;SDS011;9531;52.030;4.380;2022-08-06T08:55:36;1999.90;;;887.60;;
18806;SDS011;9531;52.030;4.380;2022-08-06T08:58:05;1999.90;;;907.10;;
18806;SDS011;9531;52.030;4.380;2022-08-06T09:00:33;1999.90;;;873.58;;
18806;SDS011;9531;52.030;4.380;2022-08-06T09:03:00;1999.90;;;813.58;;
18806;SDS011;9531;52.030;4.380;2022-08-06T09:05:30;1999.90;;;900.45;;
18806;SDS011;9531;52.030;4.380;2022-08-06T09:07:59;1999.90;;;908.30;;
18806;SDS011;9531;52.030;4.380;2022-08-06T09:10:29;1999.90;;;934.70;;
18806;SDS011;9531;52.030;4.380;2022-08-06T09:12:56;1999.90;;;894.55;;
18806;SDS011;9531;52.030;4.380;2022-08-06T09:15:23;1999.90;;;913.30;;
18806;SDS011;9531;52.030;4.380;2022-08-06T09:17:51;1999.90;;;919.88;;
18806;SDS011;9531;52.030;4.380;2022-08-06T09:20:18;1999.90;;;943.42;;
18806;SDS011;9531;52.030;4.380;2022-08-06T09:22:45;1999.90;;;889.70;;
18806;SDS011;9531;52.030;4.380;2022-08-06T09:28:03;1999.90;;;920.88;;
18806;SDS011;9531;52.030;4.380;2022-08-06T09:30:31;1999.90;;;933.95;;
18806;SDS011;9531;52.030;4.380;2022-08-06T09:32:58;1999.90;;;915.45;;
18806;SDS011;9531;52.030;4.380;2022-08-06T09:35:27;1999.90;;;956.35;;
18806;SDS011;9531;52.030;4.380;2022-08-06T09:37:59;1999.90;;;972.13;;
18806;SDS011;9531;52.030;4.380;2022-08-06T09:40:27;1999.90;;;928.35;;
18806;SDS011;9531;52.030;4.380;2022-08-06T09:42:54;1999.90;;;919.25;;
18806;SDS011;9531;52.030;4.380;2022-08-06T09:45:25;1999.90;;;922.75;;
18806;SDS011;9531;52.030;4.380;2022-08-06T09:48:03;1999.90;;;958.33;;
18806;SDS011;9531;52.030;4.380;2022-08-06T09:50:38;1999.90;;;944.67;;
18806;SDS011;9531;52.030;4.380;2022-08-06T09:53:06;1999.90;;;969.15;;
18806;SDS011;9531;52.030;4.380;2022-08-06T09:55:33;1999.90;;;973.22;;
18806;SDS011;9531;52.030;4.380;2022-08-06T09:58:01;1999.90;;;927.58;;
18806;SDS011;9531;52.030;4.380;2022-08-06T10:00:30;1999.90;;;964.75;;
18806;SDS011;9531;52.030;4.380;2022-08-06T10:05:27;1999.90;;;993.70;;
18806;SDS011;9531;52.030;4.380;2022-08-06T10:08:05;1999.90;;;936.28;;
18806;SDS011;9531;52.030;4.380;2022-08-06T10:10:42;1999.90;;;897.88;;
18806;SDS011;9531;52.030;4.380;2022-08-06T10:13:14;1999.90;;;986.47;;
18806;SDS011;9531;52.030;4.380;2022-08-06T10:15:43;1999.90;;;975.13;;
18806;SDS011;9531;52.030;4.380;2022-08-06T10:18:14;1999.90;;;973.85;;
18806;SDS011;9531;52.030;4.380;2022-08-06T10:21:02;1999.90;;;991.88;;
18806;SDS011;9531;52.030;4.380;2022-08-06T10:23:31;1999.90;;;968.78;;
18806;SDS011;9531;52.030;4.380;2022-08-06T10:26:00;1999.90;;;999.90;;
18806;SDS011;9531;52.030;4.380;2022-08-06T10:28:28;1999.90;;;944.88;;
18806;SDS011;9531;52.030;4.380;2022-08-06T10:30:58;1999.90;;;972.65;;
18806;SDS011;9531;52.030;4.380;2022-08-06T10:33:26;1999.90;;;996.00;;
18806;SDS011;9531;52.030;4.380;2022-08-06T10:35:57;1999.90;;;938.63;;
18806;SDS011;9531;52.030;4.380;2022-08-06T10:38:27;1999.90;;;992.53;;
18806;SDS011;9531;52.030;4.380;2022-08-06T10:40:55;1999.90;;;968.30;;
18806;SDS011;9531;52.030;4.380;2022-08-06T10:43:24;1999.90;;;959.40;;
18806;SDS011;9531;52.030;4.380;2022-08-06T10:45:51;1999.90;;;997.20;;
18806;SDS011;9531;52.030;4.380;2022-08-06T10:48:21;1999.90;;;974.55;;
18806;SDS011;9531;52.030;4.380;2022-08-06T10:50:49;1999.90;;;999.90;;
18806;SDS011;9531;52.030;4.380;2022-08-06T10:53:17;1999.90;;;999.90;;
18806;SDS011;9531;52.030;4.380;2022-08-06T10:55:45;1999.90;;;988.33;;
18806;SDS011;9531;52.030;4.380;2022-08-06T10:58:12;1999.90;;;962.45;;
18806;SDS011;9531;52.030;4.380;2022-08-06T11:00:40;1999.90;;;951.80;;
18806;SDS011;9531;52.030;4.380;2022-08-06T11:03:13;1999.90;;;901.47;;
18806;SDS011;9531;52.030;4.380;2022-08-06T11:05:42;1999.90;;;986.55;;
18806;SDS011;9531;52.030;4.380;2022-08-06T11:08:21;1999.90;;;996.63;;
18806;SDS011;9531;52.030;4.380;2022-08-06T11:10:54;1999.90;;;999.90;;
18806;SDS011;9531;52.030;4.380;2022-08-06T11:13:26;1999.90;;;982.38;;
18806;SDS011;9531;52.030;4.380;2022-08-06T11:15:55;1999.90;;;925.50;;
18806;SDS011;9531;52.030;4.380;2022-08-06T11:18:23;1999.90;;;976.42;;
18806;SDS011;9531;52.030;4.380;2022-08-06T11:20:51;1999.90;;;962.30;;
18806;SDS011;9531;52.030;4.380;2022-08-06T11:26:05;1999.90;;;999.90;;
18806;SDS011;9531;52.030;4.380;2022-08-06T11:31:29;1999.90;;;990.35;;
18806;SDS011;9531;52.030;4.380;2022-08-06T11:34:01;1999.90;;;995.50;;
18806;SDS011;9531;52.030;4.380;2022-08-06T11:36:42;1999.90;;;999.90;;
18806;SDS011;9531;52.030;4.380;2022-08-06T11:39:10;1999.90;;;972.60;;
18806;SDS011;9531;52.030;4.380;2022-08-06T11:41:43;1999.90;;;992.63;;
18806;SDS011;9531;52.030;4.380;2022-08-06T11:44:10;1999.90;;;999.90;;
18806;SDS011;9531;52.030;4.380;2022-08-06T11:46:41;1999.90;;;997.47;;
18806;SDS011;9531;52.030;4.380;2022-08-06T11:49:11;1999.90;;;970.92;;
18806;SDS011;9531;52.030;4.380;2022-08-06T11:51:40;1999.90;;;966.90;;
18806;SDS011;9531;52.030;4.380;2022-08-06T11:54:08;1999.90;;;968.50;;
18806;SDS011;9531;52.030;4.380;2022-08-06T11:56:36;1999.90;;;970.20;;
18806;SDS011;9531;52.030;4.380;2022-08-06T11:59:24;1999.90;;;988.67;;
18806;SDS011;9531;52.030;4.380;2022-08-06T12:01:52;1999.90;;;998.47;;
18806;SDS011;9531;52.030;4.380;2022-08-06T12:04:38;1999.90;;;931.90;;
18806;SDS011;9531;52.030;4.380;2022-08-06T12:07:15;1999.90;;;969.75;;
18806;SDS011;9531;52.030;4.380;2022-08-06T12:09:42;1999.90;;;993.28;;
18806;SDS011;9531;52.030;4.380;2022-08-06T12:14:59;1999.90;;;956.40;;
18806;SDS011;9531;52.030;4.380;2022-08-06T12:17:28;1999.90;;;955.67;;
18806;SDS011;9531;52.030;4.380;2022-08-06T12:19:56;1999.90;;;955.97;;
18806;SDS011;9531;52.030;4.380;2022-08-06T12:22:25;1999.90;;;975.30;;
18806;SDS011;9531;52.030;4.380;2022-08-06T12:24:53;1999.90;;;978.75;;
18806;SDS011;9531;52.030;4.380;2022-08-06T12:27:22;1999.90;;;995.60;;
18806;SDS011;9531;52.030;4.380;2022-08-06T12:29:53;1999.90;;;982.92;;
18806;SDS011;9531;52.030;4.380;2022-08-06T12:32:22;1999.90;;;999.90;;
18806;SDS011;9531;52.030;4.380;2022-08-06T12:34:50;1999.90;;;997.38;;
18806;SDS011;9531;52.030;4.380;2022-08-06T12:37:17;1999.90;;;987.88;;
18806;SDS011;9531;52.030;4.380;2022-08-06T12:39:46;1999.90;;;990.92;;
18806;SDS011;9531;52.030;4.380;2022-08-06T12:42:33;1999.90;;;961.95;;
18806;SDS011;9531;52.030;4.380;2022-08-06T12:45:04;1999.90;;;971.65;;
18806;SDS011;9531;52.030;4.380;2022-08-06T12:47:35;1999.90;;;910.28;;
18806;SDS011;9531;52.030;4.380;2022-08-06T12:50:15;1999.90;;;992.97;;
18806;SDS011;9531;52.030;4.380;2022-08-06T12:52:42;1999.90;;;986.80;;
18806;SDS011;9531;52.030;4.380;2022-08-06T12:55:17;1999.90;;;842.75;;
18806;SDS011;9531;52.030;4.380;2022-08-06T12:57:46;1999.90;;;962.20;;
18806;SDS011;9531;52.030;4.380;2022-08-06T13:00:14;1999.90;;;979.08;;
18806;SDS011;9531;52.030;4.380;2022-08-06T13:02:42;1999.90;;;963.50;;
18806;SDS011;9531;52.030;4.380;2022-08-06T13:05:10;1999.90;;;965.03;;
18806;SDS011;9531;52.030;4.380;2022-08-06T13:07:37;1999.90;;;992.92;;
18806;SDS011;9531;52.030;4.380;2022-08-06T13:10:08;1999.90;;;923.03;;
18806;SDS011;9531;52.030;4.380;2022-08-06T13:12:37;1999.90;;;908.47;;
18806;SDS011;9531;52.030;4.380;2022-08-06T13:15:10;1999.90;;;995.85;;
18806;SDS011;9531;52.030;4.380;2022-08-06T13:17:38;1999.90;;;904.67;;
18806;SDS011;9531;52.030;4.380;2022-08-06T13:20:05;1999.90;;;975.33;;
18806;SDS011;9531;52.030;4.380;2022-08-06T13:22:47;1999.90;;;910.83;;
18806;SDS011;9531;52.030;4.380;2022-08-06T13:25:15;1999.90;;;926.70;;
18806;SDS011;9531;52.030;4.380;2022-08-06T13:27:45;1999.90;;;866.95;;
18806;SDS011;9531;52.030;4.380;2022-08-06T13:30:14;1999.90;;;944.88;;
18806;SDS011;9531;52.030;4.380;2022-08-06T13:32:43;1999.90;;;868.33;;
18806;SDS011;9531;52.030;4.380;2022-08-06T13:35:11;1999.90;;;922.13;;
18806;SDS011;9531;52.030;4.380;2022-08-06T13:37:45;1999.90;;;940.75;;
18806;SDS011;9531;52.030;4.380;2022-08-06T13:40:13;1999.90;;;909.70;;
18806;SDS011;9531;52.030;4.380;2022-08-06T13:42:51;1999.90;;;918.08;;
18806;SDS011;9531;52.030;4.380;2022-08-06T13:45:19;1999.90;;;911.22;;
18806;SDS011;9531;52.030;4.380;2022-08-06T13:47:47;1999.90;;;945.33;;
18806;SDS011;9531;52.030;4.380;2022-08-06T13:50:17;1999.90;;;897.47;;
18806;SDS011;9531;52.030;4.380;2022-08-06T13:52:44;1999.90;;;905.38;;
18806;SDS011;9531;52.030;4.380;2022-08-06T13:55:11;1999.90;;;920.67;;
18806;SDS011;9531;52.030;4.380;2022-08-06T13:57:38;1999.90;;;998.13;;
18806;SDS011;9531;52.030;4.380;2022-08-06T14:00:07;1999.90;;;854.83;;
18806;SDS011;9531;52.030;4.380;2022-08-06T14:02:35;1999.90;;;901.75;;
18806;SDS011;9531;52.030;4.380;2022-08-06T14:05:02;1999.90;;;922.42;;
18806;SDS011;9531;52.030;4.380;2022-08-06T14:07:30;1999.90;;;937.35;;
18806;SDS011;9531;52.030;4.380;2022-08-06T14:09:57;1999.90;;;836.83;;
18806;SDS011;9531;52.030;4.380;2022-08-06T14:12:26;1999.90;;;849.35;;
18806;SDS011;9531;52.030;4.380;2022-08-06T14:14:53;1999.90;;;910.20;;
18806;SDS011;9531;52.030;4.380;2022-08-06T14:17:22;1999.90;;;857.28;;
18806;SDS011;9531;52.030;4.380;2022-08-06T14:19:49;1999.90;;;896.00;;
18806;SDS011;9531;52.030;4.380;2022-08-06T14:22:17;1999.90;;;890.17;;
18806;SDS011;9531;52.030;4.380;2022-08-06T14:24:44;1999.90;;;878.83;;
18806;SDS011;9531;52.030;4.380;2022-08-06T14:27:12;1999.90;;;917.65;;
18806;SDS011;9531;52.030;4.380;2022-08-06T14:29:41;1999.90;;;921.10;;
18806;SDS011;9531;52.030;4.380;2022-08-06T14:32:08;1999.90;;;893.53;;
18806;SDS011;9531;52.030;4.380;2022-08-06T14:34:37;1999.90;;;848.70;;
18806;SDS011;9531;52.030;4.380;2022-08-06T14:37:05;1999.90;;;880.90;;